Time;durP1;ratioP1;P1;durP2;ratioP2;P2;SDS_P1;SDS_P2;PMS_P1;PMS_P2;Temp;Humidity;BMP_temperature;BMP_pressure;BME280_temperature;BME280_humidity;BME280_pressure;Samples;Min_cycle;Max_cycle;Signal;HPM_P1;HPM_P2
2022/05/29 00:00:18;;;;;;;6.50;2.20;;;;;;;10.04;99.53;100863.81;5047700;28;20297;-51
2022/05/29 00:02:48;;;;;;;5.10;2.37;;;;;;;10.00;100.00;100858.53;5050458;28;20232;-52
2022/05/29 00:05:14;;;;;;;5.57;2.67;;;;;;;10.07;99.49;100856.81;5060628;28;20756;-51
2022/05/29 00:07:41;;;;;;;5.70;2.00;;;;;;;10.10;98.04;100856.81;5061124;28;20231;-52
2022/05/29 00:10:10;;;;;;;7.23;2.40;;;;;;;10.17;97.82;100854.22;5051559;28;20285;-52
2022/05/29 00:12:39;;;;;;;4.67;2.10;;;;;;;10.18;96.98;100845.50;5060770;28;20235;-52
2022/05/29 00:15:06;;;;;;;5.17;2.10;;;;;;;10.12;96.63;100847.22;5047501;28;20706;-51
2022/05/29 00:17:33;;;;;;;7.50;2.23;;;;;;;10.13;96.96;100852.47;5049330;28;20593;-51
2022/05/29 00:20:01;;;;;;;7.23;2.43;;;;;;;10.12;95.78;100849.84;5057884;28;20255;-52
2022/05/29 00:22:29;;;;;;;7.30;3.07;;;;;;;10.11;95.88;100850.69;5048109;28;20270;-51
2022/05/29 00:24:55;;;;;;;5.93;2.00;;;;;;;10.14;97.51;100842.84;5065716;28;20298;-51
2022/05/29 00:27:23;;;;;;;5.97;2.37;;;;;;;10.09;96.80;100840.22;5046214;28;20285;-52
2022/05/29 00:29:50;;;;;;;5.23;2.17;;;;;;;10.04;96.37;100837.59;5049075;28;20318;-51
2022/05/29 00:32:17;;;;;;;4.63;2.07;;;;;;;10.13;95.65;100841.09;5058834;28;20631;-52
2022/05/29 00:34:43;;;;;;;4.07;2.00;;;;;;;10.11;97.07;100837.56;5052302;28;20236;-51
2022/05/29 00:37:12;;;;;;;3.80;1.83;;;;;;;10.13;93.45;100835.84;5050961;28;20231;-51
2022/05/29 00:39:38;;;;;;;4.60;1.80;;;;;;;10.17;94.53;100833.22;5050918;28;20231;-50
2022/05/29 00:42:07;;;;;;;8.17;1.80;;;;;;;10.28;93.06;100825.41;5054974;28;20246;-51
2022/05/29 00:44:34;;;;;;;4.37;1.97;;;;;;;10.23;92.05;100832.38;5055698;28;20260;-51
2022/05/29 00:47:02;;;;;;;1.80;1.63;;;;;;;10.28;91.51;100835.91;5045002;28;20228;-52
2022/05/29 00:49:31;;;;;;;2.00;1.30;;;;;;;10.20;92.48;100827.13;5045165;28;20239;-52
2022/05/29 00:52:01;;;;;;;5.80;2.07;;;;;;;10.23;92.65;100827.13;5046268;28;20293;-52
2022/05/29 00:54:30;;;;;;;6.70;2.90;;;;;;;10.28;91.49;100825.41;5057480;28;20248;-52
2022/05/29 00:56:58;;;;;;;5.10;2.20;;;;;;;10.36;92.80;100818.44;5060857;28;20281;-51
2022/05/29 00:59:27;;;;;;;5.73;1.83;;;;;;;10.25;91.13;100823.69;5050984;28;20282;-52
2022/05/29 01:01:54;;;;;;;4.90;1.93;;;;;;;10.33;89.63;100822.81;5062232;28;20242;-52
2022/05/29 01:04:21;;;;;;;3.43;2.03;;;;;;;10.35;89.17;100821.91;5046118;28;20834;-51
2022/05/29 01:06:49;;;;;;;5.63;1.80;;;;;;;10.34;89.48;100820.19;5053210;28;20604;-52
2022/05/29 01:09:16;;;;;;;3.07;1.83;;;;;;;10.36;89.87;100823.69;5045159;28;20902;-51
2022/05/29 01:12:00;;;;;;;1.80;1.53;;;;;;;10.42;89.91;100823.66;5061829;28;20312;-51
2022/05/29 01:14:30;;;;;;;4.03;2.50;;;;;;;10.31;89.70;100814.91;5064665;28;20284;-51
2022/05/29 01:17:06;;;;;;;9.80;2.17;;;;;;;10.32;89.58;100821.94;5049911;28;20231;-51
2022/05/29 01:19:47;;;;;;;3.37;1.97;;;;;;;10.33;90.16;100818.44;5044775;28;20227;-51
2022/05/29 01:22:26;;;;;;;4.17;1.50;;;;;;;10.34;89.97;100812.31;5061153;28;20231;-51
2022/05/29 01:25:19;;;;;;;2.50;1.37;;;;;;;10.34;90.35;100808.81;5057370;28;20769;-51
2022/05/29 01:28:09;;;;;;;5.30;2.17;;;;;;;10.41;90.27;100811.44;5045316;28;20232;-51
2022/05/29 01:30:40;;;;;;;5.20;1.70;;;;;;;10.33;90.70;100815.81;5049373;28;20288;-51
2022/05/29 01:33:11;;;;;;;4.67;1.90;;;;;;;10.36;89.93;100809.69;5045589;28;20373;-51
2022/05/29 01:35:43;;;;;;;5.00;1.70;;;;;;;10.31;90.13;100806.19;5056333;28;20257;-50
2022/05/29 01:38:12;;;;;;;3.10;2.20;;;;;;;10.34;91.09;100809.69;5060438;28;20232;-51
2022/05/29 01:40:43;;;;;;;4.13;1.90;;;;;;;10.38;89.96;100803.56;5057364;28;20231;-51
2022/05/29 01:43:17;;;;;;;5.37;1.70;;;;;;;10.33;90.34;100805.31;5065025;28;20230;-51
2022/05/29 01:45:57;;;;;;;6.40;2.30;;;;;;;10.32;91.57;100805.28;5064623;28;20231;-51
2022/05/29 01:48:40;;;;;;;3.77;1.90;;;;;;;10.24;91.35;100807.88;5063237;28;20304;-51
2022/05/29 01:51:09;;;;;;;5.50;2.47;;;;;;;10.15;90.85;100814.00;5050403;28;20683;-51
2022/05/29 01:53:44;;;;;;;5.17;1.70;;;;;;;10.23;90.67;100807.00;5057826;28;20314;-51
2022/05/29 01:56:16;;;;;;;5.50;1.50;;;;;;;10.24;91.59;100814.00;5057451;28;20276;-51
2022/05/29 01:58:48;;;;;;;2.93;1.53;;;;;;;10.22;90.98;100807.03;5061550;28;20289;-52
2022/05/29 02:01:15;;;;;;;7.73;1.87;;;;;;;10.21;90.34;100803.53;5052764;28;20336;-52
2022/05/29 02:03:45;;;;;;;2.73;1.90;;;;;;;10.21;91.22;100802.63;5064313;28;20238;-51
2022/05/29 02:06:14;;;;;;;3.03;1.83;;;;;;;10.14;89.95;100803.47;5062727;28;20231;-51
2022/05/29 02:08:47;;;;;;;3.17;1.63;;;;;;;10.15;89.89;100795.63;5052053;28;20238;-52
2022/05/29 02:11:16;;;;;;;4.70;1.93;;;;;;;10.14;90.79;100791.25;5050530;28;20243;-51
2022/05/29 02:13:47;;;;;;;4.90;2.07;;;;;;;10.10;91.13;100799.97;5064417;28;20231;-51
2022/05/29 02:16:16;;;;;;;4.67;1.87;;;;;;;10.11;90.84;100795.59;5064281;28;20239;-52
2022/05/29 02:18:47;;;;;;;3.73;2.27;;;;;;;10.17;91.02;100800.88;5063491;28;20721;-52
2022/05/29 02:21:20;;;;;;;2.60;1.70;;;;;;;10.13;91.04;100792.13;5054686;28;20250;-53
2022/05/29 02:23:51;;;;;;;5.53;1.87;;;;;;;10.13;90.51;100793.88;5056533;28;20285;-51
2022/05/29 02:26:20;;;;;;;3.57;2.10;;;;;;;10.21;90.81;100785.16;5054125;28;20240;-52
2022/05/29 02:28:52;;;;;;;4.17;2.00;;;;;;;10.21;89.43;100786.88;5048537;28;20254;-50
2022/05/29 02:31:28;;;;;;;6.50;2.43;;;;;;;10.20;89.70;100785.13;5048819;28;20259;-52
2022/05/29 02:33:58;;;;;;;4.57;2.00;;;;;;;10.24;89.66;100789.50;5050329;28;20305;-51
2022/05/29 02:36:32;;;;;;;2.70;1.70;;;;;;;10.19;89.48;100786.03;5054001;28;20262;-51
2022/05/29 02:39:12;;;;;;;6.63;2.00;;;;;;;10.21;89.41;100784.25;5063196;28;20330;-50
2022/05/29 02:41:47;;;;;;;4.23;2.00;;;;;;;10.20;89.92;100782.50;5054563;28;20685;-52
2022/05/29 02:44:24;;;;;;;6.97;2.20;;;;;;;10.30;88.64;100792.19;5047896;28;20292;-52
2022/05/29 02:46:52;;;;;;;4.90;1.97;;;;;;;10.20;88.77;100787.75;5066700;28;20716;-52
2022/05/29 02:49:24;;;;;;;4.23;1.97;;;;;;;10.17;88.28;100785.13;5053218;28;20293;-51
2022/05/29 02:51:52;;;;;;;5.20;2.47;;;;;;;10.16;89.30;100786.00;5056601;28;20309;-53
2022/05/29 02:54:22;;;;;;;3.70;1.97;;;;;;;10.11;90.15;100779.88;5050482;28;20630;-53
2022/05/29 02:56:48;;;;;;;3.80;1.97;;;;;;;10.28;89.14;100791.28;5054836;28;20234;-53
2022/05/29 02:59:16;;;;;;;7.10;2.47;;;;;;;10.16;89.67;100780.75;5047421;28;20236;-51
2022/05/29 03:01:46;;;;;;;5.60;1.90;;;;;;;10.17;89.13;100786.00;5052760;28;20276;-52
2022/05/29 03:04:33;;;;;;;3.80;2.27;;;;;;;10.13;89.96;100781.63;5048236;28;20235;-51
2022/05/29 03:07:05;;;;;;;4.83;1.80;;;;;;;10.16;90.02;100781.63;5056069;28;20259;-51
2022/05/29 03:09:46;;;;;;;5.37;2.40;;;;;;;10.12;90.32;100777.25;5060602;28;20655;-51
2022/05/29 03:12:24;;;;;;;6.33;2.10;;;;;;;10.04;90.48;100782.50;5056507;28;20294;-50
2022/05/29 03:15:01;;;;;;;4.53;1.67;;;;;;;10.10;91.05;100780.75;5067979;28;20223;-52
2022/05/29 03:17:31;;;;;;;3.90;1.93;;;;;;;10.10;91.31;100776.38;5053460;28;20235;-52
2022/05/29 03:20:03;;;;;;;6.27;2.10;;;;;;;10.14;91.90;100774.63;5066712;28;20245;-52
2022/05/29 03:22:36;;;;;;;3.13;1.90;;;;;;;10.10;92.48;100778.13;5057525;28;20254;-56
2022/05/29 03:25:08;;;;;;;4.07;2.10;;;;;;;10.18;91.58;100781.63;5067416;28;20304;-51
2022/05/29 03:27:38;;;;;;;3.53;1.97;;;;;;;10.13;91.18;100779.00;5067955;28;20238;-52
2022/05/29 03:30:10;;;;;;;4.27;2.30;;;;;;;10.06;91.99;100781.63;5064807;28;20234;-50
2022/05/29 03:32:37;;;;;;;7.30;2.90;;;;;;;10.08;92.77;100790.38;5055031;28;20634;-52
2022/05/29 03:35:18;;;;;;;3.20;2.13;;;;;;;10.10;92.85;100783.38;5057625;28;20278;-53
2022/05/29 03:37:45;;;;;;;3.83;2.07;;;;;;;10.09;91.56;100786.88;5055846;28;20238;-53
2022/05/29 03:40:12;;;;;;;3.67;2.20;;;;;;;9.95;92.81;100787.72;5046035;28;20240;-51
2022/05/29 03:42:39;;;;;;;3.03;1.93;;;;;;;9.95;92.88;100781.59;5054919;28;20231;-54
2022/05/29 03:45:08;;;;;;;5.40;2.50;;;;;;;9.97;93.08;100780.75;5067310;28;20588;-51
2022/05/29 03:47:34;;;;;;;3.73;2.13;;;;;;;9.97;94.03;100785.97;5056975;28;20277;-51
2022/05/29 03:50:01;;;;;;;4.17;2.73;;;;;;;9.98;93.37;100781.59;5057235;28;20235;-52
2022/05/29 03:52:27;;;;;;;6.90;2.20;;;;;;;9.99;94.02;100785.97;5057347;28;20326;-51
2022/05/29 03:54:53;;;;;;;3.17;2.27;;;;;;;10.15;92.78;100779.91;5063559;28;20236;-52
2022/05/29 03:57:20;;;;;;;8.23;2.43;;;;;;;10.13;92.78;100772.88;5053786;28;20782;-52
2022/05/29 03:59:46;;;;;;;4.83;2.47;;;;;;;10.07;92.99;100773.75;5055213;28;20294;-52
2022/05/29 04:02:14;;;;;;;2.27;1.97;;;;;;;10.08;94.03;100774.63;5051405;28;20678;-52
2022/05/29 04:04:40;;;;;;;4.53;2.30;;;;;;;9.97;94.23;100766.75;5065967;28;20712;-53
2022/05/29 04:07:07;;;;;;;4.57;2.77;;;;;;;10.07;94.55;100773.75;5066472;28;20289;-54
2022/05/29 04:12:18;;;;;;;2.17;1.67;;;;;;;10.05;94.21;100772.88;5051300;28;20660;-53
2022/05/29 04:14:44;;;;;;;7.83;3.40;;;;;;;10.02;94.83;100765.88;5067021;28;20232;-52
2022/05/29 04:17:15;;;;;;;3.70;2.20;;;;;;;10.04;94.96;100771.13;5066751;28;20243;-51
2022/05/29 04:19:44;;;;;;;4.43;2.30;;;;;;;10.07;94.79;100767.63;5064938;28;20235;-53
2022/05/29 04:22:12;;;;;;;6.17;2.70;;;;;;;10.04;95.43;100779.88;5049016;28;20243;-53
2022/05/29 04:24:38;;;;;;;3.53;2.13;;;;;;;10.16;94.86;100773.75;5047217;28;20236;-52
2022/05/29 04:27:08;;;;;;;6.93;1.87;;;;;;;9.94;95.66;100778.09;5054034;28;20236;-53
2022/05/29 04:29:34;;;;;;;5.73;2.77;;;;;;;10.00;96.02;100774.59;5053068;28;20312;-51
2022/05/29 04:34:46;;;;;;;7.13;2.40;;;;;;;10.03;96.45;100777.22;5045707;28;20247;-52
2022/05/29 04:37:12;;;;;;;3.87;2.23;;;;;;;10.12;96.60;100773.78;5044812;28;20321;-51
2022/05/29 04:39:39;;;;;;;3.37;2.30;;;;;;;10.27;96.33;100779.94;5053650;28;20247;-53
2022/05/29 04:42:06;;;;;;;4.33;2.43;;;;;;;10.22;95.95;100773.78;5046558;28;20289;-51
2022/05/29 04:44:33;;;;;;;2.67;1.93;;;;;;;10.32;95.80;100768.56;5066666;28;20227;-51
2022/05/29 04:47:00;;;;;;;6.23;2.10;;;;;;;10.32;95.52;100763.31;5066352;28;22796;-52
2022/05/29 04:49:26;;;;;;;5.93;3.03;;;;;;;10.22;94.90;100772.91;5065602;28;20368;-52
2022/05/29 04:51:54;;;;;;;4.40;2.43;;;;;;;10.20;95.59;100767.63;5047018;28;20305;-52
2022/05/29 04:54:21;;;;;;;3.80;2.10;;;;;;;10.27;96.23;100760.69;5062413;28;21150;-52
2022/05/29 04:56:48;;;;;;;3.67;2.10;;;;;;;10.23;96.61;100759.78;5046057;28;20282;-53
2022/05/29 04:59:14;;;;;;;5.07;2.60;;;;;;;10.41;96.10;100769.44;5056255;28;20306;-54
2022/05/29 05:01:40;;;;;;;4.23;2.43;;;;;;;10.43;95.10;100761.59;5046081;28;20227;-52
2022/05/29 05:04:07;;;;;;;5.30;2.47;;;;;;;10.44;95.40;100763.31;5048926;28;20286;-52
2022/05/29 05:06:33;;;;;;;6.80;2.07;;;;;;;10.58;94.42;100761.56;5045796;28;20321;-52
2022/05/29 05:09:02;;;;;;;4.60;1.97;;;;;;;10.67;93.24;100769.44;5058797;28;20227;-52
2022/05/29 05:11:29;;;;;;;5.23;2.30;;;;;;;10.51;93.02;100771.19;5066192;28;20232;-51
2022/05/29 05:13:55;;;;;;;3.13;2.53;;;;;;;10.56;93.51;100762.44;5050123;28;20245;-51
2022/05/29 05:16:22;;;;;;;4.13;2.00;;;;;;;10.58;94.51;100773.81;5045958;28;20765;-53
2022/05/29 05:18:48;;;;;;;5.10;1.80;;;;;;;10.57;93.35;100769.47;5055980;28;20759;-54
2022/05/29 05:21:14;;;;;;;6.20;2.80;;;;;;;10.45;94.14;100771.19;5065962;28;20249;-52
2022/05/29 05:23:41;;;;;;;8.23;2.70;;;;;;;10.40;94.95;100764.19;5057080;28;20243;-54
2022/05/29 05:26:12;;;;;;;4.63;2.40;;;;;;;10.49;95.27;100767.72;5046622;28;20784;-54
2022/05/29 05:28:39;;;;;;;6.03;2.83;;;;;;;10.45;94.02;100760.69;5054420;28;20227;-51
2022/05/29 05:31:05;;;;;;;3.27;2.27;;;;;;;10.49;94.91;100764.19;5048245;28;20687;-53
2022/05/29 05:33:32;;;;;;;5.53;2.23;;;;;;;10.42;95.60;100759.81;5061188;28;20235;-53
2022/05/29 05:35:58;;;;;;;3.53;2.50;;;;;;;10.46;95.54;100762.47;5055626;28;20235;-53
2022/05/29 05:38:25;;;;;;;8.97;2.80;;;;;;;10.49;94.92;100761.56;5053808;28;20274;-52
2022/05/29 05:40:51;;;;;;;5.30;2.53;;;;;;;10.57;95.82;100764.22;5065642;28;20594;-52
2022/05/29 05:43:20;;;;;;;2.50;2.30;;;;;;;10.54;95.36;100766.81;5065172;28;20239;-52
2022/05/29 05:45:47;;;;;;;4.23;2.60;;;;;;;10.62;95.85;100765.94;5049438;28;20310;-52
2022/05/29 05:48:14;;;;;;;5.47;2.30;;;;;;;10.59;95.18;100758.06;5048496;28;20763;-51
2022/05/29 05:50:40;;;;;;;9.13;2.70;;;;;;;10.62;94.91;100765.94;5049953;28;20775;-51
2022/05/29 05:53:06;;;;;;;4.10;2.37;;;;;;;10.63;95.33;100761.56;5054674;28;20249;-51
2022/05/29 05:55:36;;;;;;;6.03;2.60;;;;;;;10.70;96.11;100763.28;5052046;28;20822;-54
2022/05/29 05:58:02;;;;;;;5.17;2.90;;;;;;;10.67;95.21;100755.41;5052380;28;20711;-51
2022/05/29 06:00:30;;;;;;;6.10;2.67;;;;;;;10.69;95.49;100769.44;5057420;28;20231;-51
2022/05/29 06:02:56;;;;;;;5.20;2.53;;;;;;;10.75;94.87;100769.44;5063703;28;20889;-52
2022/05/29 06:05:23;;;;;;;4.40;2.20;;;;;;;10.79;95.19;100771.19;5056182;28;20726;-53
2022/05/29 06:07:50;;;;;;;4.90;2.87;;;;;;;10.81;95.17;100779.03;5059999;28;20257;-53
2022/05/29 06:10:18;;;;;;;6.43;2.87;;;;;;;10.83;94.11;100772.91;5063707;28;20654;-51
2022/05/29 06:12:44;;;;;;;3.97;2.53;;;;;;;10.93;94.84;100768.53;5059886;28;20918;-53
2022/05/29 06:15:12;;;;;;;8.37;3.30;;;;;;;11.08;93.87;100773.75;5057778;28;20706;-53
2022/05/29 06:17:40;;;;;;;3.80;2.70;;;;;;;11.09;93.46;100770.25;5045398;28;20286;-51
2022/05/29 06:20:07;;;;;;;4.27;2.93;;;;;;;11.15;93.82;100770.22;5058368;28;20235;-51
2022/05/29 06:22:36;;;;;;;4.37;2.53;;;;;;;11.08;93.01;100770.25;5064164;28;20449;-53
2022/05/29 06:25:03;;;;;;;7.33;2.93;;;;;;;11.13;92.03;100773.75;5061640;28;20237;-51
2022/05/29 06:27:30;;;;;;;4.20;2.37;;;;;;;11.14;92.07;100772.84;5065572;28;20701;-52
2022/05/29 06:29:57;;;;;;;8.17;3.23;;;;;;;11.17;92.14;100768.47;5050156;28;20600;-52
2022/05/29 06:32:23;;;;;;;5.27;2.63;;;;;;;11.18;92.40;100774.59;5057106;28;20231;-52
2022/05/29 06:34:51;;;;;;;7.53;2.90;;;;;;;11.24;92.59;100769.34;5055225;28;20313;-52
2022/05/29 06:37:17;;;;;;;5.93;2.20;;;;;;;11.32;92.16;100775.41;5045099;28;20330;-53
2022/05/29 06:39:43;;;;;;;4.50;2.43;;;;;;;11.32;91.97;100770.16;5057037;28;20244;-52
2022/05/29 06:42:11;;;;;;;5.33;2.33;;;;;;;11.55;90.67;100775.34;5051984;28;20231;-53
2022/05/29 06:44:37;;;;;;;3.70;2.50;;;;;;;11.36;90.56;100777.16;5064662;28;20231;-53
2022/05/29 06:47:07;;;;;;;4.27;3.17;;;;;;;11.32;90.05;100774.56;5048271;28;20257;-53
2022/05/29 06:49:33;;;;;;;8.17;3.30;;;;;;;11.18;90.49;100778.09;5059878;28;20235;-53
2022/05/29 06:52:01;;;;;;;3.57;2.60;;;;;;;11.18;91.66;100779.84;5061593;28;20232;-55
2022/05/29 06:54:28;;;;;;;3.73;2.20;;;;;;;11.20;91.57;100778.09;5064468;28;20284;-52
2022/05/29 06:56:54;;;;;;;6.28;2.72;;;;;;;11.28;90.62;100772.81;5053449;28;20616;-52
2022/05/29 06:59:21;;;;;;;3.20;2.10;;;;;;;11.23;91.49;100771.09;5051307;28;20239;-54
2022/05/29 07:07:29;;;;;;;4.73;2.37;;;;;;;11.64;89.13;100771.78;5034850;28;20308;-53
2022/05/29 07:09:55;;;;;;;4.18;2.42;;;;;;;11.78;88.37;100771.72;5052744;28;20668;-53
2022/05/29 07:12:23;;;;;;;3.97;2.47;;;;;;;11.77;87.57;100775.25;5053153;28;20355;-52
2022/05/29 07:14:52;;;;;;;3.50;2.67;;;;;;;11.83;88.36;100781.34;5056331;28;20231;-54
2022/05/29 07:17:19;;;;;;;7.82;2.58;;;;;;;11.92;87.75;100778.69;5057822;28;20231;-51
2022/05/29 07:19:45;;;;;;;5.28;2.20;;;;;;;11.93;85.73;100772.56;5059139;28;20262;-51
2022/05/29 07:22:12;;;;;;;2.53;2.33;;;;;;;11.96;83.35;100773.41;5053500;28;20228;-52
2022/05/29 07:24:40;;;;;;;9.95;3.45;;;;;;;11.88;83.34;100781.34;5061712;28;20866;-53
2022/05/29 07:27:07;;;;;;;7.60;2.60;;;;;;;11.84;84.01;100777.00;5060556;28;20231;-53
2022/05/29 07:29:33;;;;;;;3.50;2.17;;;;;;;11.96;84.69;100786.56;5059095;28;20239;-52
2022/05/29 07:32:00;;;;;;;10.55;2.90;;;;;;;12.06;84.26;100789.13;5056801;28;20655;-55
2022/05/29 07:34:27;;;;;;;3.42;1.73;;;;;;;12.14;84.07;100786.44;5054954;28;20239;-52
2022/05/29 07:36:55;;;;;;;2.53;1.73;;;;;;;12.29;83.42;100786.34;5062065;28;20264;-51
2022/05/29 07:39:22;;;;;;;2.53;1.88;;;;;;;12.42;81.03;100784.47;5053474;28;20324;-54
2022/05/29 07:44:33;;;;;;;4.88;2.17;;;;;;;12.56;80.29;100779.09;5059886;28;20242;-52
2022/05/29 07:47:00;;;;;;;4.68;2.20;;;;;;;12.48;80.09;100792.34;5065543;28;20604;-51
2022/05/29 07:49:26;;;;;;;10.55;2.40;;;;;;;12.17;84.23;100783.78;5051620;28;20239;-52
2022/05/29 07:51:53;;;;;;;6.03;2.42;;;;;;;12.02;86.99;100789.16;5062726;28;20302;-53
2022/05/29 07:54:20;;;;;;;4.13;2.45;;;;;;;11.86;88.01;100786.63;5053069;28;20266;-53
2022/05/29 07:56:47;;;;;;;6.88;2.30;;;;;;;11.66;90.49;100791.06;5056393;28;20235;-51
2022/05/29 07:59:16;;;;;;;3.73;1.83;;;;;;;11.52;93.03;100790.25;5045272;28;20236;-51
2022/05/29 08:01:42;;;;;;;6.03;2.70;;;;;;;11.49;95.10;100795.53;5058176;28;20228;-52
2022/05/29 08:04:09;;;;;;;6.13;2.47;;;;;;;11.45;96.57;100792.91;5047403;28;20239;-52
2022/05/29 08:06:36;;;;;;;4.80;2.23;;;;;;;11.31;94.29;100789.47;5049324;28;20239;-52
2022/05/29 08:09:02;;;;;;;4.67;3.13;;;;;;;11.26;95.24;100791.22;5055301;28;20227;-52
2022/05/29 08:11:28;;;;;;;4.90;2.13;;;;;;;11.27;95.30;100790.34;5054430;28;20292;-52
2022/05/29 08:13:55;;;;;;;4.13;2.43;;;;;;;11.35;95.20;100785.94;5060918;28;20339;-51
2022/05/29 08:16:23;;;;;;;5.03;2.37;;;;;;;11.47;94.40;100788.50;5063207;28;20230;-51
2022/05/29 08:18:50;;;;;;;6.30;2.33;;;;;;;11.54;92.55;100791.97;5066231;28;20239;-52
2022/05/29 08:21:16;;;;;;;4.13;2.50;;;;;;;11.62;92.87;100782.31;5063295;28;20267;-52
2022/05/29 08:30:37;;;;;;;2.22;2.08;;;;;;;11.83;91.77;100785.72;5051855;28;20234;-52
2022/05/29 08:32:13;;;;;;;5.05;2.25;;;;;;;12.36;80.06;100793.31;4987738;28;20248;-54
2022/05/29 08:34:39;;;;;;;4.82;2.00;;;;;;;12.59;79.21;100785.22;5003787;28;20606;-53
2022/05/29 08:37:06;;;;;;;5.82;1.92;;;;;;;12.76;76.75;100784.22;5019787;28;20223;-52
2022/05/29 08:39:35;;;;;;;2.47;1.75;;;;;;;12.86;77.86;100789.38;5048221;28;20232;-51
2022/05/29 08:42:02;;;;;;;3.10;2.05;;;;;;;13.13;81.60;100776.81;5060323;28;20328;-53
2022/05/29 08:44:33;;;;;;;5.55;2.28;;;;;;;13.49;74.29;100777.31;5057664;28;20290;-51
2022/05/29 08:47:02;;;;;;;6.88;2.00;;;;;;;13.64;71.42;100773.59;5052885;28;20285;-52
2022/05/29 08:49:31;;;;;;;3.55;1.75;;;;;;;13.69;73.36;100777.94;5049523;28;20238;-52
2022/05/29 08:52:15;;;;;;;2.40;1.80;;;;;;;13.70;72.29;100774.41;5055902;28;20239;-53
2022/05/29 08:54:49;;;;;;;3.13;1.65;;;;;;;13.61;72.79;100779.78;5057751;28;20574;-52
2022/05/29 08:57:37;;;;;;;1.67;1.45;;;;;;;13.42;73.04;100771.25;5059753;28;20258;-52
2022/05/29 09:00:06;;;;;;;5.78;1.70;;;;;;;12.99;70.08;100778.72;5054249;28;20239;-52
2022/05/29 09:02:40;;;;;;;4.78;1.58;;;;;;;12.63;78.28;100778.16;5056243;28;20261;-50
2022/05/29 09:05:12;;;;;;;5.70;2.75;;;;;;;11.64;92.51;100783.19;5057356;28;20246;-51
2022/05/29 09:07:41;;;;;;;6.38;4.38;;;;;;;10.84;100.00;100779.91;5051953;28;20243;-53
2022/05/29 09:10:12;;;;;;;5.77;1.83;;;;;;;10.50;100.00;100773.81;5055505;28;20290;-54
2022/05/29 09:12:41;;;;;;;5.50;2.63;;;;;;;10.31;100.00;100783.44;5064049;28;20333;-53
2022/05/29 09:15:13;;;;;;;5.87;2.90;;;;;;;10.21;100.00;100782.53;5059144;28;20246;-52
2022/05/29 09:17:44;;;;;;;3.40;3.10;;;;;;;10.14;100.00;100779.88;5053754;28;20674;-52
2022/05/29 09:20:16;;;;;;;5.43;2.60;;;;;;;10.31;100.00;100785.19;5057483;28;20240;-52
2022/05/29 09:22:44;;;;;;;3.40;2.73;;;;;;;10.73;100.00;100781.69;5050177;28;20231;-52
2022/05/29 09:25:15;;;;;;;4.83;3.60;;;;;;;11.06;100.00;100774.66;5054856;28;20235;-52
2022/05/29 09:27:47;;;;;;;4.93;3.50;;;;;;;11.52;100.00;100771.84;5062591;28;20281;-54
2022/05/29 09:30:14;;;;;;;7.83;3.63;;;;;;;11.67;100.00;100772.66;5062531;28;20242;-53
2022/05/29 09:32:49;;;;;;;6.50;3.30;;;;;;;12.00;100.00;100775.13;5052412;28;20664;-51
2022/05/29 09:35:20;;;;;;;5.23;2.80;;;;;;;12.09;100.00;100777.72;5052350;28;20646;-53
2022/05/29 09:37:53;;;;;;;4.70;2.40;;;;;;;11.78;100.00;100783.09;5060430;28;20296;-52
2022/05/29 09:40:23;;;;;;;5.67;2.90;;;;;;;11.61;100.00;100777.06;5051456;28;20293;-51
2022/05/29 09:42:52;;;;;;;3.90;2.63;;;;;;;11.22;100.00;100779.81;5064287;28;20288;-52
2022/05/29 09:45:28;;;;;;;4.85;2.63;;;;;;;11.01;100.00;100779.88;5066542;28;20654;-52
2022/05/29 09:50:51;;;;;;;2.97;2.50;;;;;;;10.64;100.00;100781.69;5057734;28;20381;-51
2022/05/29 09:53:20;;;;;;;4.93;2.40;;;;;;;10.64;100.00;100781.69;5056615;28;20298;-53
2022/05/29 09:55:56;;;;;;;5.53;2.77;;;;;;;10.83;100.00;100775.53;5059774;28;20941;-52
2022/05/29 09:58:28;;;;;;;5.43;3.13;;;;;;;10.83;100.00;100779.94;5060804;28;20235;-53
2022/05/29 10:00:59;;;;;;;3.37;2.70;;;;;;;11.08;100.00;100775.50;5063580;28;20227;-50
2022/05/29 10:03:45;;;;;;;6.53;3.03;;;;;;;11.09;100.00;100779.84;5062855;28;20227;-52
2022/05/29 10:06:17;;;;;;;3.60;2.23;;;;;;;11.12;100.00;100777.22;5058286;28;20740;-52
2022/05/29 10:08:44;;;;;;;3.10;1.77;;;;;;;11.16;100.00;100779.88;5056553;28;20231;-52
2022/05/29 10:11:21;;;;;;;1.83;1.73;;;;;;;11.50;100.00;100765.72;5054396;28;20247;-52
2022/05/29 10:13:48;;;;;;;2.63;1.60;;;;;;;11.80;100.00;100770.84;5060365;28;20320;-51
2022/05/29 10:16:33;;;;;;;1.50;0.63;;;;;;;12.17;93.28;100770.63;5057515;28;20289;-51
2022/05/29 10:19:00;;;;;;;0.77;0.77;;;;;;;12.15;84.01;100769.78;5055911;28;20322;-52
2022/05/29 10:21:31;;;;;;;1.23;1.10;;;;;;;12.32;83.38;100775.81;5065522;28;20246;-51
2022/05/29 10:24:12;;;;;;;2.37;1.40;;;;;;;12.66;85.81;100768.47;5053144;28;20447;-51
2022/05/29 10:26:39;;;;;;;2.30;1.20;;;;;;;12.74;83.34;100771.06;5057614;28;20234;-49
2022/05/29 10:29:13;;;;;;;2.00;1.27;;;;;;;12.78;83.15;100764.00;5061369;28;20243;-51
2022/05/29 10:31:41;;;;;;;1.77;1.00;;;;;;;12.70;80.08;100771.94;5061376;28;20266;-51
2022/05/29 10:34:10;;;;;;;1.75;1.15;;;;;;;12.74;82.55;100778.97;5061969;28;20254;-52
2022/05/29 10:36:39;;;;;;;2.85;1.23;;;;;;;12.88;79.95;100771.81;5069632;28;20246;-52
2022/05/29 10:39:13;;;;;;;1.23;1.15;;;;;;;12.85;75.39;100771.81;5055342;28;20239;-51
2022/05/29 10:41:42;;;;;;;4.00;1.27;;;;;;;12.90;77.23;100780.53;5057659;28;20228;-51
2022/05/29 10:44:11;;;;;;;3.25;1.83;;;;;;;12.94;75.43;100780.53;5055509;28;20232;-51
2022/05/29 10:46:41;;;;;;;1.05;1.05;;;;;;;12.88;75.24;100776.16;5066267;28;20245;-51
2022/05/29 10:49:26;;;;;;;2.00;1.35;;;;;;;13.05;72.74;100778.63;5064785;28;20239;-52
2022/05/29 10:52:20;;;;;;;3.33;2.75;;;;;;;13.29;69.79;100773.13;5065084;28;20226;-52
2022/05/29 10:55:11;;;;;;;3.53;1.50;;;;;;;13.43;65.79;100772.09;5060097;28;20234;-50
2022/05/29 10:57:49;;;;;;;1.55;1.45;;;;;;;13.74;66.48;100760.25;5056358;28;20235;-51
2022/05/29 11:00:28;;;;;;;2.65;1.02;;;;;;;13.94;68.66;100757.34;5053816;28;20320;-52
2022/05/29 11:03:20;;;;;;;2.67;1.55;;;;;;;14.29;64.45;100764.75;5059080;28;20732;-52
2022/05/29 11:06:03;;;;;;;1.25;1.10;;;;;;;14.68;62.11;100762.38;5057524;28;20611;-53
2022/05/29 11:08:38;;;;;;;2.45;1.27;;;;;;;14.40;64.03;100768.97;5067079;28;20333;-51
2022/05/29 11:11:16;;;;;;;2.92;1.13;;;;;;;13.97;70.18;100775.78;5072672;28;20242;-52
2022/05/29 11:14:04;;;;;;;2.20;1.42;;;;;;;12.84;87.85;100791.13;5057403;28;20231;-53
2022/05/29 11:16:38;;;;;;;2.83;2.50;;;;;;;11.75;100.00;100791.00;5063030;28;20230;-53
2022/05/29 11:19:31;;;;;;;3.42;2.03;;;;;;;11.04;100.00;100782.50;5052872;28;20390;-54
2022/05/29 11:22:07;;;;;;;3.37;2.30;;;;;;;10.79;100.00;100781.69;5049092;28;20243;-55
2022/05/29 11:24:47;;;;;;;5.67;2.60;;;;;;;10.59;100.00;100781.69;5062136;28;20610;-53
2022/05/29 11:27:26;;;;;;;4.63;2.73;;;;;;;10.58;100.00;100777.31;5057913;28;20651;-54
2022/05/29 11:30:02;;;;;;;3.93;2.80;;;;;;;10.45;100.00;100771.19;5057391;28;20235;-53
2022/05/29 11:32:41;;;;;;;4.13;2.77;;;;;;;10.41;100.00;100772.06;5061675;28;20230;-53
2022/05/29 11:35:15;;;;;;;3.93;2.63;;;;;;;10.48;100.00;100776.44;5066260;28;20235;-53
2022/05/29 11:37:59;;;;;;;6.57;3.20;;;;;;;10.49;100.00;100770.34;5066137;28;20276;-56
2022/05/29 11:40:30;;;;;;;5.13;3.77;;;;;;;10.19;100.00;100767.66;5062740;28;20239;-53
2022/05/29 11:43:01;;;;;;;5.73;3.43;;;;;;;10.17;100.00;100758.91;5062504;28;20235;-53
2022/05/29 11:51:07;;;;;;;5.27;3.67;;;;;;;10.18;100.00;100758.00;5064453;28;20612;-53
2022/05/29 11:51:10;;;;;;;3.57;2.90;;;;;;;10.43;100.00;100751.94;5038293;28;20233;-55
2022/05/29 11:53:42;;;;;;;4.17;3.77;;;;;;;10.56;100.00;100746.69;5062071;28;20235;-53
2022/05/29 11:56:15;;;;;;;5.27;3.23;;;;;;;10.68;100.00;100736.19;5061436;28;20685;-53
2022/05/29 11:58:47;;;;;;;3.53;3.17;;;;;;;10.88;100.00;100739.66;5054938;28;20238;-54
2022/05/29 12:01:16;;;;;;;7.80;3.90;;;;;;;11.58;100.00;100733.25;5063383;28;20697;-54
2022/05/29 12:03:45;;;;;;;6.50;3.93;;;;;;;12.39;100.00;100738.00;5061575;28;20265;-55